Time;durP1;ratioP1;P1;durP2;ratioP2;P2;SDS_P1;SDS_P2;PMS_P1;PMS_P2;Temp;Humidity;BMP_temperature;BMP_pressure;BME280_temperature;BME280_humidity;BME280_pressure;Samples;Min_cycle;Max_cycle;Signal;HPM_P1;HPM_P2
2023/01/08 00:00:09;;;;;;;5.30;4.00;;;10.30;85.20;;;10.76;53.36;98161.94;4966511;28;124054;-71
2023/01/08 00:02:35;;;;;;;7.87;4.70;;;10.30;85.10;;;10.74;53.39;98156.72;4987176;28;122554;-71
2023/01/08 00:05:02;;;;;;;4.80;3.67;;;10.30;85.20;;;10.73;53.29;98154.31;5001026;28;114138;-71
2023/01/08 00:07:28;;;;;;;6.10;4.00;;;10.20;85.00;;;10.73;53.17;98144.06;4956785;28;114221;-71
2023/01/08 00:09:55;;;;;;;4.07;3.43;;;10.30;85.20;;;10.76;53.20;98139.81;4959166;28;124147;-71
2023/01/08 00:12:21;;;;;;;4.57;3.47;;;10.50;85.40;;;10.79;53.64;98137.19;4965974;28;124265;-71
2023/01/08 00:14:48;;;;;;;5.20;3.80;;;10.30;85.20;;;10.81;53.67;98136.88;4954306;28;114379;-71
2023/01/08 00:17:14;;;;;;;5.53;3.70;;;10.30;85.30;;;10.82;53.38;98131.00;4960931;28;114131;-70
2023/01/08 00:19:41;;;;;;;5.10;3.83;;;10.30;85.20;;;10.83;53.35;98131.84;4967286;28;125624;-70
2023/01/08 00:22:08;;;;;;;5.83;4.10;;;10.30;85.20;;;10.83;53.52;98129.09;4966516;28;122831;-70
2023/01/08 00:24:35;;;;;;;6.07;4.20;;;10.30;85.20;;;10.83;52.97;98138.19;4969040;28;113781;-70
2023/01/08 00:27:01;;;;;;;9.83;4.07;;;10.30;85.20;;;10.83;53.47;98134.59;4962895;28;114033;-70
2023/01/08 00:29:28;;;;;;;8.63;4.90;;;10.30;85.10;;;10.81;53.34;98131.34;4967887;28;124431;-70
2023/01/08 00:31:54;;;;;;;11.43;5.40;;;10.30;85.00;;;10.81;52.80;98131.34;4969356;28;123730;-70
2023/01/08 00:34:21;;;;;;;7.13;4.93;;;10.40;85.00;;;10.78;52.70;98132.03;4970029;28;115275;-70
2023/01/08 00:36:47;;;;;;;6.40;3.90;;;10.40;84.90;;;10.76;52.87;98123.25;4968027;28;114419;-70
2023/01/08 00:39:14;;;;;;;9.30;5.20;;;10.40;84.90;;;10.76;52.88;98114.97;5000111;28;123951;-70
2023/01/08 00:41:43;;;;;;;5.67;4.00;;;10.30;84.80;;;10.73;53.05;98099.84;4971025;28;122958;-70
2023/01/08 00:44:09;;;;;;;7.63;4.37;;;10.30;84.90;;;10.73;53.22;98088.78;4968748;28;113477;-71
2023/01/08 00:46:36;;;;;;;6.43;4.20;;;10.30;84.90;;;10.73;53.11;98093.53;4962359;28;115268;-70
2023/01/08 00:49:02;;;;;;;6.07;3.80;;;10.20;84.90;;;10.74;53.11;98086.84;4965936;28;124026;-70
2023/01/08 00:51:29;;;;;;;5.20;4.33;;;10.20;85.10;;;10.75;53.27;98082.94;4987619;28;123107;-70
2023/01/08 00:53:56;;;;;;;7.00;4.00;;;10.30;85.20;;;10.76;53.33;98087.31;4969364;28;114748;-71
2023/01/08 00:56:22;;;;;;;5.13;4.00;;;10.30;85.30;;;10.77;53.16;98084.25;4969601;28;113752;-71
2023/01/08 00:58:48;;;;;;;6.77;4.50;;;10.50;85.50;;;10.80;53.25;98094.63;4970304;28;123961;-71
2023/01/08 01:01:15;;;;;;;6.50;4.53;;;10.30;85.30;;;10.76;52.88;98093.66;4962864;28;123918;-71
2023/01/08 01:03:45;;;;;;;5.53;3.90;;;10.30;85.30;;;10.75;53.16;98089.28;4963519;28;114211;-72
2023/01/08 01:06:13;;;;;;;6.03;4.10;;;10.30;85.20;;;10.74;53.37;98082.13;4965359;28;114770;-71
2023/01/08 01:08:40;;;;;;;7.43;4.97;;;10.30;85.20;;;10.73;53.13;98074.19;4968079;28;124335;-71
2023/01/08 01:11:09;;;;;;;6.00;4.40;;;10.20;85.00;;;10.68;53.03;98077.94;4964839;28;123917;-71
2023/01/08 01:13:36;;;;;;;6.07;4.60;;;10.20;84.90;;;10.65;52.91;98075.81;4979499;28;113324;-71
2023/01/08 01:16:04;;;;;;;8.90;4.47;;;10.30;85.00;;;10.65;52.75;98080.56;4963045;28;114447;-71
2023/01/08 01:18:31;;;;;;;7.13;5.10;;;11.50;86.20;;;10.64;52.79;98076.97;4970042;28;122879;-71
2023/01/08 01:20:57;;;;;;;6.53;4.30;;;10.20;84.80;;;10.62;53.19;98062.69;4970998;28;123445;-72
2023/01/08 01:23:24;;;;;;;6.67;4.67;;;10.10;84.70;;;10.61;52.77;98078.44;4971427;28;113976;-72
2023/01/08 01:25:51;;;;;;;5.70;4.00;;;10.20;84.80;;;10.59;52.76;98088.22;4986025;28;114586;-71
2023/01/08 01:28:18;;;;;;;6.00;4.07;;;10.10;84.80;;;10.59;52.83;98088.22;4971825;28;124023;-73
2023/01/08 01:30:44;;;;;;;7.50;4.60;;;10.10;84.70;;;10.58;53.18;98070.78;4960392;28;124664;-71
2023/01/08 01:33:11;;;;;;;5.93;4.67;;;10.10;84.80;;;10.59;53.28;98066.91;4967717;28;114270;-72
2023/01/08 01:35:37;;;;;;;5.80;3.90;;;10.10;84.80;;;10.60;53.12;98064.97;4968415;28;113898;-71
2023/01/08 01:38:04;;;;;;;6.77;4.60;;;10.20;85.00;;;10.58;52.67;98073.56;4968434;28;124090;-71
2023/01/08 01:40:30;;;;;;;6.40;4.10;;;10.10;84.90;;;10.58;53.22;98081.03;4969563;28;124057;-71
2023/01/08 01:42:57;;;;;;;6.43;3.80;;;10.20;85.10;;;10.58;52.93;98081.84;4969364;28;114240;-71
2023/01/08 01:45:30;;;;;;;5.13;3.57;;;10.10;85.10;;;10.58;53.49;98087.38;4968184;28;114040;-71
2023/01/08 01:48:03;;;;;;;9.60;4.20;;;10.10;85.20;;;10.57;53.28;98085.75;4970826;28;124075;-71
2023/01/08 01:50:39;;;;;;;6.10;4.30;;;10.60;85.80;;;10.58;53.37;98098.41;4987241;28;122955;-71
2023/01/08 01:53:30;;;;;;;5.00;3.93;;;10.10;85.40;;;10.59;53.54;98096.50;4968546;28;114660;-71
2023/01/08 01:55:57;;;;;;;5.90;3.47;;;10.10;85.50;;;10.57;53.27;98084.97;4968330;28;114244;-71
2023/01/08 01:58:28;;;;;;;5.70;3.63;;;10.10;85.60;;;10.59;53.62;98089.00;4953367;28;123103;-72
2023/01/08 02:00:58;;;;;;;4.97;3.73;;;10.10;85.60;;;10.58;53.27;98081.84;4968162;28;123798;-71
2023/01/08 02:03:31;;;;;;;3.93;3.50;;;10.10;85.60;;;10.59;53.46;98083.50;4971346;28;114323;-71
2023/01/08 02:06:16;;;;;;;4.37;3.70;;;10.10;85.70;;;10.59;53.70;98080.72;4970755;28;113599;-71
2023/01/08 02:09:15;;;;;;;5.77;3.80;;;10.10;85.60;;;10.54;53.55;98075.38;4964697;28;124033;-71
2023/01/08 02:12:18;;;;;;;4.10;3.13;;;10.10;85.50;;;10.54;53.41;98069.03;4968495;28;123924;-71
2023/01/08 02:15:13;;;;;;;5.83;4.20;;;10.10;85.60;;;10.54;53.36;98064.34;4966235;28;115289;-71
2023/01/08 02:17:57;;;;;;;4.63;3.73;;;10.10;85.60;;;10.53;53.58;98068.25;4952151;28;114089;-72
2023/01/08 02:20:53;;;;;;;4.70;3.60;;;10.10;85.60;;;10.50;53.71;98066.13;4961693;28;124491;-72
2023/01/08 02:23:35;;;;;;;6.43;4.10;;;10.10;85.60;;;10.49;53.82;98060.94;4980955;28;122628;-72
2023/01/08 02:26:16;;;;;;;4.53;3.33;;;10.00;85.60;;;10.49;53.67;98050.69;4966546;28;113388;-72
2023/01/08 02:28:54;;;;;;;6.10;4.07;;;10.00;85.70;;;10.50;53.59;98048.75;4968920;28;114025;-72
2023/01/08 02:31:23;;;;;;;4.20;3.30;;;10.00;85.70;;;10.50;53.75;98046.78;4965871;28;124065;-71
2023/01/08 02:33:49;;;;;;;5.07;3.70;;;10.10;85.80;;;10.51;53.67;98037.38;4964682;28;124296;-71
2023/01/08 02:36:21;;;;;;;3.90;3.17;;;10.00;85.70;;;10.54;53.45;98030.38;4967041;28;114085;-71
2023/01/08 02:39:20;;;;;;;5.57;3.53;;;10.10;85.80;;;10.56;53.47;98028.91;4968708;28;114047;-71
2023/01/08 02:41:52;;;;;;;9.90;4.17;;;10.10;85.80;;;10.57;53.46;98019.47;5001008;28;124080;-71
2023/01/08 02:44:40;;;;;;;4.60;3.10;;;10.10;85.70;;;10.56;53.19;98023.38;5003487;28;123335;-71
2023/01/08 02:47:18;;;;;;;4.90;3.53;;;10.10;85.60;;;10.55;53.40;98013.47;4975566;28;114413;-72
2023/01/08 02:49:48;;;;;;;3.97;3.20;;;10.10;85.60;;;10.54;53.43;98008.28;4965693;28;113646;-73
2023/01/08 02:52:16;;;;;;;4.73;3.40;;;10.10;85.60;;;10.54;53.49;97998.03;5000554;28;124088;-71
2023/01/08 02:54:45;;;;;;;6.83;4.10;;;10.10;85.60;;;10.55;53.68;98010.69;4966073;28;123566;-72
2023/01/08 02:57:14;;;;;;;5.77;3.40;;;10.10;85.60;;;10.54;53.34;97992.50;4967382;28;114126;-71
2023/01/08 02:59:46;;;;;;;5.07;3.50;;;10.30;85.70;;;10.55;53.33;97994.13;4981492;28;113900;-72
2023/01/08 03:02:12;;;;;;;5.17;3.60;;;10.10;85.60;;;10.56;53.15;97984.72;4980712;28;123342;-71
2023/01/08 03:04:52;;;;;;;4.90;3.20;;;10.60;86.00;;;10.60;53.37;97990.38;4976005;28;123339;-71
2023/01/08 03:07:19;;;;;;;4.53;3.63;;;10.10;85.50;;;10.60;53.69;97988.41;4983973;28;114936;-71
2023/01/08 03:09:46;;;;;;;3.90;3.00;;;10.10;85.50;;;10.63;52.98;97983.38;4968434;28;114611;-71
2023/01/08 03:12:26;;;;;;;6.73;3.87;;;10.10;85.60;;;10.65;53.44;97984.66;4968013;28;123886;-71
2023/01/08 03:15:18;;;;;;;4.47;3.30;;;10.10;85.60;;;10.66;53.04;97988.22;4948253;28;123645;-72
2023/01/08 03:17:49;;;;;;;5.20;3.57;;;10.20;85.70;;;10.66;53.05;97993.75;4951986;28;115157;-72
2023/01/08 03:20:20;;;;;;;4.43;3.40;;;10.20;85.60;;;10.66;52.91;97986.28;4968194;28;113598;-71
2023/01/08 03:22:53;;;;;;;5.00;3.40;;;10.20;85.60;;;10.64;53.24;97977.53;4966969;28;123823;-71
2023/01/08 03:25:23;;;;;;;4.13;3.37;;;10.20;85.50;;;10.63;52.91;97983.38;4949035;28;123870;-71
2023/01/08 03:28:03;;;;;;;5.13;3.50;;;10.30;85.60;;;10.64;53.13;97972.00;4968864;28;113524;-72
2023/01/08 03:30:30;;;;;;;4.43;3.00;;;10.40;85.70;;;10.61;52.89;97967.97;4969707;28;114022;-72
2023/01/08 03:32:59;;;;;;;4.40;3.33;;;10.10;85.50;;;10.59;53.27;97961.94;4955470;28;123076;-71
2023/01/08 03:35:29;;;;;;;3.30;2.93;;;10.10;85.50;;;10.59;53.15;97961.94;4985175;28;123674;-71
2023/01/08 03:38:15;;;;;;;3.40;2.83;;;10.10;85.50;;;10.60;53.18;97952.50;4991098;28;113773;-71
2023/01/08 03:40:51;;;;;;;5.27;3.77;;;10.20;85.60;;;10.62;53.49;97949.44;5006564;28;113776;-72
2023/01/08 03:43:18;;;;;;;8.30;4.70;;;10.10;85.40;;;10.61;53.50;97945.03;4971356;28;124451;-78
2023/01/08 03:45:51;;;;;;;4.70;3.20;;;10.20;85.60;;;10.64;53.41;97946.31;4962968;28;124042;-71
2023/01/08 03:48:20;;;;;;;4.03;3.17;;;10.20;85.60;;;10.67;53.34;97940.16;4965448;28;114302;-71
2023/01/08 03:50:47;;;;;;;4.57;3.60;;;10.20;85.60;;;10.70;53.03;97939.47;4971492;28;113787;-71
2023/01/08 03:53:14;;;;;;;5.40;3.33;;;10.20;85.60;;;10.73;53.24;97947.88;4969204;28;124501;-71
2023/01/08 03:55:41;;;;;;;5.03;3.50;;;11.10;86.40;;;10.74;53.00;97941.22;4971012;28;123778;-71
2023/01/08 03:58:08;;;;;;;4.20;3.37;;;10.20;85.50;;;10.77;53.16;97942.50;4973104;28;115233;-72
2023/01/08 04:00:34;;;;;;;4.10;3.10;;;10.20;85.50;;;10.77;53.27;97940.56;4970618;28;115045;-71
2023/01/08 04:03:01;;;;;;;5.97;3.63;;;10.30;85.60;;;10.81;52.89;97935.16;4970126;28;123893;-71
2023/01/08 04:05:27;;;;;;;5.57;3.83;;;10.30;85.50;;;10.81;52.91;97935.97;4970664;28;123931;-73
2023/01/08 04:07:55;;;;;;;4.27;3.27;;;10.30;86.10;;;10.82;52.69;97925.72;4970372;28;114139;-72
2023/01/08 04:10:24;;;;;;;6.53;4.00;;;10.30;85.40;;;10.82;52.92;97936.78;4971172;28;113927;-72
2023/01/08 04:12:50;;;;;;;5.00;3.40;;;10.30;85.30;;;10.82;53.17;97922.97;4970378;28;124098;-71
2023/01/08 04:15:17;;;;;;;6.17;4.00;;;10.30;85.30;;;10.82;53.15;97932.06;4970342;28;123693;-71
2023/01/08 04:17:44;;;;;;;4.60;3.43;;;10.30;85.20;;;10.83;52.68;97930.13;4971014;28;113574;-71
2023/01/08 04:20:11;;;;;;;4.43;3.30;;;10.30;85.20;;;10.82;52.67;97932.06;4970800;28;113699;-71
2023/01/08 04:22:37;;;;;;;3.90;2.70;;;10.30;85.40;;;10.83;53.10;97924.59;4985171;28;124155;-71
2023/01/08 04:25:04;;;;;;;4.27;3.07;;;10.30;85.30;;;10.84;52.79;97934.50;4969628;28;123109;-71
2023/01/08 04:27:31;;;;;;;4.73;3.20;;;10.30;85.30;;;10.85;52.83;97930.56;4969495;28;114334;-71
2023/01/08 04:29:57;;;;;;;4.90;3.17;;;10.40;85.40;;;10.86;52.65;97931.41;4970722;28;114106;-71
2023/01/08 04:32:24;;;;;;;4.23;2.87;;;10.40;85.40;;;10.86;52.63;97926.69;4970792;28;123359;-71
2023/01/08 04:34:50;;;;;;;4.00;3.30;;;10.40;85.40;;;10.87;52.98;97933.81;4972310;28;125274;-73
2023/01/08 04:37:17;;;;;;;3.83;3.10;;;10.40;85.30;;;10.88;52.92;97937.38;4992225;28;112282;-72
2023/01/08 04:39:43;;;;;;;4.00;2.90;;;10.40;85.30;;;10.89;53.15;97934.31;4972064;28;113153;-71
2023/01/08 04:42:10;;;;;;;4.40;3.63;;;10.50;85.30;;;10.91;52.56;97933.94;4971496;28;123101;-71
2023/01/08 04:44:36;;;;;;;3.50;2.90;;;10.40;85.30;;;10.91;52.44;97937.53;4970497;28;123829;-72
2023/01/08 04:47:03;;;;;;;3.97;3.30;;;10.40;85.30;;;10.94;52.68;97944.34;4970833;28;113367;-71
2023/01/08 04:49:29;;;;;;;4.93;3.50;;;10.40;85.20;;;10.95;52.65;97938.47;4971585;28;115185;-71
2023/01/08 04:51:56;;;;;;;3.53;2.73;;;10.40;85.20;;;10.94;52.56;97947.91;4972534;28;124147;-71
2023/01/08 04:54:22;;;;;;;5.10;3.30;;;10.40;85.20;;;10.91;52.52;97945.00;5005168;28;122925;-71
2023/01/08 04:56:50;;;;;;;4.43;3.00;;;10.40;85.00;;;10.88;52.52;97940.16;4970341;28;114316;-71
2023/01/08 04:59:17;;;;;;;3.00;2.50;;;10.50;85.00;;;10.87;52.59;97938.53;4972498;28;114407;-74
2023/01/08 05:01:43;;;;;;;5.17;2.70;;;10.40;84.90;;;10.88;52.20;97940.97;4969914;28;124015;-71
2023/01/08 05:04:10;;;;;;;4.13;2.87;;;10.40;84.80;;;10.92;52.00;97947.44;4970020;28;123092;-71
2023/01/08 05:06:37;;;;;;;3.90;2.57;;;10.40;85.40;;;10.96;52.13;97940.13;4969919;28;114161;-71
2023/01/08 05:09:03;;;;;;;3.67;2.67;;;11.20;85.40;;;11.02;51.95;97946.25;4969444;28;114126;-71
2023/01/08 05:11:30;;;;;;;3.73;2.60;;;10.50;84.60;;;11.08;51.90;97949.63;4965494;28;123953;-71
2023/01/08 05:13:56;;;;;;;2.67;2.37;;;10.60;84.70;;;11.14;52.55;97948.25;4969019;28;123802;-71
2023/01/08 05:16:23;;;;;;;4.20;2.47;;;10.70;84.80;;;11.19;52.50;97956.34;4969993;28;114171;-71
2023/01/08 05:18:50;;;;;;;3.70;2.50;;;10.70;84.80;;;11.23;52.61;97957.28;4952439;28;113215;-73
2023/01/08 05:21:17;;;;;;;4.10;1.90;;;10.70;85.20;;;11.27;52.52;97963.78;4969805;28;125927;-71
2023/01/08 05:23:46;;;;;;;3.03;2.43;;;10.80;85.60;;;11.29;52.96;97964.25;4970367;28;124623;-71
2023/01/08 05:26:18;;;;;;;7.33;2.90;;;10.80;85.80;;;11.32;53.20;97954.47;4967603;28;114976;-71
2023/01/08 05:28:45;;;;;;;2.43;2.00;;;11.40;86.50;;;11.35;53.32;97959.31;4973227;28;114014;-70
2023/01/08 05:31:12;;;;;;;3.90;1.80;;;10.90;86.20;;;11.36;53.44;97944.34;4972269;28;124170;-70
2023/01/08 05:33:39;;;;;;;3.43;1.80;;;11.00;86.50;;;11.38;53.52;97953.91;5003677;28;123358;-70
2023/01/08 05:36:07;;;;;;;1.60;1.50;;;10.90;86.50;;;11.39;53.96;97938.97;4968664;28;115383;-70
2023/01/08 05:38:34;;;;;;;2.73;1.77;;;11.00;86.70;;;11.42;53.97;97954.88;4971073;28;114472;-70
2023/01/08 05:41:00;;;;;;;2.13;1.60;;;11.00;86.80;;;11.45;53.84;97932.06;4968753;28;124003;-70
2023/01/08 05:43:27;;;;;;;2.33;1.70;;;11.00;86.90;;;11.49;53.95;97937.72;4966822;28;123670;-70
2023/01/08 05:45:53;;;;;;;2.00;1.73;;;11.10;87.10;;;11.50;54.18;97939.34;4966584;28;114308;-70
2023/01/08 05:48:20;;;;;;;2.23;1.40;;;11.10;87.20;;;11.56;54.15;97953.78;4969149;28;113997;-70
2023/01/08 05:50:49;;;;;;;2.27;1.60;;;11.10;87.50;;;11.56;54.56;97937.97;4969712;28;124113;-70
2023/01/08 05:53:15;;;;;;;1.93;1.30;;;11.10;87.70;;;11.56;54.47;97956.53;4967954;28;123375;-70
2023/01/08 05:55:42;;;;;;;1.60;1.40;;;11.10;87.90;;;11.57;54.56;97953.41;4969559;28;113974;-70
2023/01/08 05:58:09;;;;;;;1.67;1.20;;;11.30;88.30;;;11.57;54.46;97953.41;4971305;28;113715;-70
2023/01/08 06:00:36;;;;;;;1.30;1.20;;;11.10;88.20;;;11.57;54.84;97952.63;4971323;28;124019;-70
2023/01/08 06:03:03;;;;;;;2.80;1.30;;;11.10;88.30;;;11.57;55.09;97955.38;4967045;28;123648;-70
2023/01/08 06:05:31;;;;;;;2.07;1.50;;;11.10;88.60;;;11.54;55.46;97954.09;4969231;28;114157;-70
2023/01/08 06:07:58;;;;;;;1.70;1.40;;;11.10;88.90;;;11.52;55.79;97950.06;4987184;28;113681;-71
2023/01/08 06:10:25;;;;;;;1.37;1.27;;;11.10;89.00;;;11.52;56.04;97941.75;4970134;28;122758;-70
2023/01/08 06:12:52;;;;;;;1.63;1.50;;;11.10;89.30;;;11.47;55.96;97945.53;4968459;28;124423;-71
2023/01/08 06:15:18;;;;;;;1.67;1.47;;;11.30;89.60;;;11.45;56.04;97934.81;4969037;28;114169;-70
2023/01/08 06:17:45;;;;;;;1.87;1.50;;;11.10;89.80;;;11.45;56.44;97929.28;4990035;28;112797;-70
2023/01/08 06:20:11;;;;;;;1.47;1.37;;;11.00;89.90;;;11.46;56.19;97928.13;4966854;28;124043;-70
2023/01/08 06:22:38;;;;;;;1.33;1.20;;;11.00;90.00;;;11.43;56.25;97917.75;4968023;28;124298;-70
2023/01/08 06:25:05;;;;;;;2.10;1.60;;;11.00;90.00;;;11.43;56.15;97939.06;4967677;28;115125;-70
2023/01/08 06:27:31;;;;;;;1.47;1.30;;;11.00;90.00;;;11.43;56.39;97926.06;4972102;28;114390;-70
2023/01/08 06:29:58;;;;;;;1.97;1.40;;;11.00;90.10;;;11.44;56.14;97929.63;4966411;28;123993;-71
2023/01/08 06:32:24;;;;;;;1.57;1.27;;;11.00;90.00;;;11.45;56.20;97912.69;4968235;28;123992;-70
2023/01/08 06:34:51;;;;;;;1.70;1.50;;;11.00;90.10;;;11.46;56.09;97921.78;4968972;28;114389;-70
2023/01/08 06:37:17;;;;;;;1.20;1.10;;;11.00;90.00;;;11.46;56.39;97917.06;5003238;28;116433;-70
2023/01/08 06:39:44;;;;;;;1.90;1.10;;;11.00;90.10;;;11.49;56.34;97910.06;4968175;28;124111;-70
2023/01/08 06:42:10;;;;;;;2.20;1.37;;;11.00;90.20;;;11.50;56.47;97898.66;4967059;28;124050;-70
2023/01/08 06:44:37;;;;;;;1.70;1.43;;;11.10;90.20;;;11.52;56.49;97900.25;5003750;28;113422;-71
2023/01/08 06:47:03;;;;;;;1.50;1.40;;;11.00;90.10;;;11.54;56.49;97911.81;5002497;28;113061;-71
2023/01/08 06:49:30;;;;;;;1.90;1.20;;;11.10;90.10;;;11.57;56.51;97922.19;4968146;28;124095;-71
2023/01/08 06:51:56;;;;;;;1.73;1.30;;;11.10;90.20;;;11.59;56.11;97915.16;4970404;28;123808;-71
2023/01/08 06:54:23;;;;;;;1.83;1.37;;;11.10;90.20;;;11.60;56.43;97913.19;4968550;28;114425;-71
2023/01/08 06:56:49;;;;;;;2.60;1.47;;;11.10;90.20;;;11.62;56.21;97902.59;4969838;28;113175;-71
2023/01/08 06:59:16;;;;;;;1.70;1.23;;;11.10;90.20;;;11.62;56.30;97920.00;4986083;28;124144;-71
2023/01/08 07:01:42;;;;;;;1.20;1.00;;;11.10;90.20;;;11.64;56.49;97922.44;4967728;28;123610;-70
2023/01/08 07:04:09;;;;;;;1.60;1.50;;;11.10;90.30;;;11.61;56.63;97921.16;4965246;28;114407;-70
2023/01/08 07:06:35;;;;;;;1.70;1.30;;;11.10;90.30;;;11.59;56.31;97919.88;4961020;28;113765;-71
2023/01/08 07:09:02;;;;;;;1.73;1.00;;;11.10;90.30;;;11.58;56.49;97918.25;4961900;28;124094;-71
2023/01/08 07:11:28;;;;;;;2.37;1.10;;;11.10;90.40;;;11.55;56.97;97908.69;4963261;28;123863;-71
2023/01/08 07:13:55;;;;;;;1.87;1.50;;;11.10;90.50;;;11.52;56.68;97906.59;4964528;28;115035;-71
2023/01/08 07:16:22;;;;;;;1.47;1.20;;;11.10;90.50;;;11.54;57.07;97914.56;4968038;28;114904;-71
2023/01/08 07:18:48;;;;;;;2.60;1.27;;;11.10;90.70;;;11.49;57.29;97910.84;4969065;28;125434;-71
2023/01/08 07:21:15;;;;;;;1.70;1.30;;;11.00;90.70;;;11.47;57.09;97918.72;4967639;28;123853;-71
2023/01/08 07:23:41;;;;;;;1.37;1.27;;;11.00;90.70;;;11.46;57.53;97925.38;4967651;28;114899;-71
2023/01/08 07:26:08;;;;;;;1.40;1.07;;;11.10;90.80;;;11.43;57.47;97931.59;4966964;28;114034;-71
2023/01/08 07:28:34;;;;;;;1.40;1.20;;;11.00;90.80;;;11.42;57.60;97934.72;4997527;28;122827;-71
2023/01/08 07:31:05;;;;;;;1.40;1.20;;;11.00;91.00;;;11.40;57.60;97923.16;4967529;28;123862;-71
2023/01/08 07:33:31;;;;;;;2.60;1.30;;;10.90;91.00;;;11.37;58.34;97932.16;4967544;28;114715;-71
2023/01/08 07:35:57;;;;;;;1.83;1.47;;;11.00;91.30;;;11.33;58.27;97920.94;5000263;28;112946;-71
2023/01/08 07:38:24;;;;;;;1.50;1.30;;;11.00;91.40;;;11.32;58.19;97932.34;4966293;28;123838;-71
2023/01/08 07:40:51;;;;;;;1.37;1.27;;;10.80;91.40;;;11.28;58.98;97919.22;4966649;28;123807;-71
2023/01/08 07:43:18;;;;;;;2.97;1.23;;;10.80;91.50;;;11.26;58.88;97932.56;4963029;28;114657;-72
2023/01/08 07:45:45;;;;;;;1.40;1.20;;;10.80;91.70;;;11.23;59.24;97929.63;4955673;28;113133;-71
2023/01/08 07:48:15;;;;;;;1.43;1.33;;;10.80;91.80;;;11.21;59.23;97921.69;4956657;28;122655;-71
2023/01/08 07:50:44;;;;;;;1.40;1.10;;;10.70;91.90;;;11.20;59.63;97927.56;4970437;28;123935;-71
2023/01/08 07:53:12;;;;;;;1.60;1.33;;;10.80;92.00;;;11.18;59.85;97941.72;4966886;28;115745;-71
2023/01/08 07:55:40;;;;;;;1.50;1.40;;;10.70;92.10;;;11.17;59.71;97942.06;4969360;28;113941;-72
2023/01/08 07:58:11;;;;;;;1.53;1.30;;;10.70;92.20;;;11.15;59.51;97919.47;4969560;28;122996;-72
2023/01/08 08:00:39;;;;;;;3.67;1.23;;;10.90;92.40;;;11.14;60.20;97923.38;4969530;28;122988;-72
2023/01/08 08:03:10;;;;;;;2.97;1.40;;;10.70;92.40;;;11.13;60.44;97924.53;4968681;28;115180;-72
2023/01/08 08:05:37;;;;;;;1.30;1.10;;;10.90;92.60;;;11.11;59.88;97930.41;4970522;28;115025;-72
2023/01/08 08:08:10;;;;;;;1.50;1.20;;;10.60;92.50;;;11.10;60.20;97926.03;4970714;28;125130;-71
2023/01/08 08:10:39;;;;;;;3.13;1.50;;;10.60;92.50;;;11.11;60.09;97907.47;4983941;28;122977;-72
2023/01/08 08:13:06;;;;;;;4.00;1.37;;;10.60;92.60;;;11.10;60.50;97925.22;4970054;28;113583;-74
2023/01/08 08:15:34;;;;;;;3.63;1.20;;;10.70;92.60;;;11.12;60.62;97922.91;4971967;28;113739;-72
2023/01/08 08:18:01;;;;;;;1.30;1.13;;;10.70;92.70;;;11.11;60.46;97913.81;4972392;28;123717;-71
2023/01/08 08:20:27;;;;;;;1.20;1.10;;;10.70;92.80;;;11.12;60.49;97928.44;4953620;28;122132;-72
2023/01/08 08:23:13;;;;;;;1.73;1.27;;;10.70;92.80;;;11.12;60.34;97929.22;4971308;28;113218;-72
2023/01/08 08:25:41;;;;;;;1.20;1.10;;;10.70;92.80;;;11.11;60.29;97924.88;4970216;28;113791;-72
2023/01/08 08:28:10;;;;;;;1.77;1.20;;;10.70;92.80;;;11.11;60.46;97926.81;4969038;28;124026;-71
2023/01/08 08:30:38;;;;;;;2.00;1.33;;;10.70;92.90;;;11.08;60.57;97917.25;4964730;28;123085;-71
2023/01/08 08:33:05;;;;;;;2.23;1.30;;;10.60;93.00;;;11.05;60.89;97913.19;4986016;28;114515;-73
2023/01/08 08:35:33;;;;;;;1.97;1.40;;;10.60;93.00;;;11.05;60.58;97912.41;4969173;28;114490;-71
2023/01/08 08:38:00;;;;;;;5.00;1.17;;;10.60;93.10;;;11.05;60.65;97910.44;4969949;28;123406;-71
2023/01/08 08:40:27;;;;;;;1.60;1.27;;;10.60;93.10;;;11.06;60.80;97897.41;5006679;28;123708;-75
2023/01/08 08:43:02;;;;;;;1.70;1.50;;;10.80;93.20;;;11.08;61.24;97902.63;4972181;28;114391;-73
2023/01/08 08:45:29;;;;;;;1.70;1.10;;;10.60;93.20;;;11.09;61.09;97910.56;4970865;28;114039;-71
2023/01/08 08:47:55;;;;;;;1.73;1.40;;;10.60;93.20;;;11.12;60.78;97906.31;4965927;28;124437;-71
2023/01/08 08:50:22;;;;;;;1.53;1.43;;;10.60;93.20;;;11.11;60.72;97894.44;4993620;28;123721;-71
2023/01/08 08:52:48;;;;;;;1.63;1.30;;;10.60;93.20;;;11.13;61.05;97900.47;4969386;28;115181;-71
2023/01/08 08:55:16;;;;;;;1.20;1.10;;;10.70;93.20;;;11.15;61.12;97897.34;5004848;28;114991;-72
2023/01/08 08:57:44;;;;;;;1.50;1.33;;;10.60;93.30;;;11.16;60.85;97896.22;4972184;28;124007;-73
2023/01/08 09:00:12;;;;;;;2.50;1.40;;;10.70;93.30;;;11.16;61.25;97890.69;4969601;28;123744;-74
2023/01/08 09:02:39;;;;;;;1.40;1.20;;;10.70;93.40;;;11.16;60.84;97885.16;4968734;28;114101;-71
2023/01/08 09:05:06;;;;;;;2.10;1.30;;;10.80;93.40;;;11.17;60.84;97886.75;4960472;28;114236;-71
2023/01/08 09:07:32;;;;;;;1.87;1.50;;;10.70;93.30;;;11.17;60.90;97886.75;4962183;28;124760;-71
2023/01/08 09:09:59;;;;;;;1.90;1.33;;;10.70;93.40;;;11.20;61.02;97880.53;4967692;28;123695;-71
2023/01/08 09:12:25;;;;;;;2.50;1.33;;;10.70;93.40;;;11.20;60.70;97883.31;4969861;28;114407;-70
2023/01/08 09:14:53;;;;;;;1.90;1.33;;;10.70;93.40;;;11.20;60.75;97875.84;4968585;28;113999;-71
2023/01/08 09:17:20;;;;;;;1.50;1.40;;;10.70;93.40;;;11.20;60.60;97886.91;4968026;28;124218;-70
2023/01/08 09:19:47;;;;;;;1.83;1.30;;;10.80;93.40;;;11.22;60.62;97890.13;4968788;28;124054;-70
2023/01/08 09:22:13;;;;;;;1.97;1.40;;;10.70;93.30;;;11.25;60.98;97889.44;4968516;28;114241;-71
2023/01/08 09:24:40;;;;;;;2.17;1.37;;;10.80;93.30;;;11.24;60.54;97885.06;4968150;28;114074;-77
2023/01/08 09:27:06;;;;;;;2.17;1.40;;;10.80;93.30;;;11.28;60.38;97886.03;4967543;28;123074;-74
2023/01/08 09:29:33;;;;;;;1.47;1.37;;;10.80;93.30;;;11.32;60.34;97897.19;4967918;28;124254;-74
2023/01/08 09:32:00;;;;;;;1.50;1.20;;;10.90;93.30;;;11.35;60.20;97888.22;4968323;28;114420;-74
2023/01/08 09:34:28;;;;;;;1.30;1.20;;;10.80;93.20;;;11.38;60.08;97887.53;4967512;28;114018;-73
2023/01/08 09:36:55;;;;;;;1.80;1.43;;;10.90;93.20;;;11.39;60.03;97889.16;4968264;28;124732;-71
2023/01/08 09:39:22;;;;;;;1.40;1.20;;;10.90;93.20;;;11.41;60.10;97889.63;4968480;28;124011;-71
2023/01/08 09:41:49;;;;;;;1.97;1.30;;;10.90;93.10;;;11.43;59.73;97898.38;4968999;28;116119;-71
2023/01/08 09:44:38;;;;;;;1.90;1.40;;;11.40;93.30;;;11.45;60.03;97890.56;4966989;28;114921;-71
2023/01/08 09:47:08;;;;;;;1.70;1.57;;;11.00;93.10;;;11.47;59.74;97890.22;4967317;28;123548;-72
2023/01/08 09:49:44;;;;;;;1.67;1.33;;;11.00;93.00;;;11.52;59.88;97886.44;4986834;28;126191;-72
2023/01/08 09:52:12;;;;;;;1.63;1.40;;;11.00;93.00;;;11.54;59.48;97879.41;4969785;28;114238;-72
2023/01/08 09:54:40;;;;;;;1.33;1.20;;;11.10;93.00;;;11.55;59.60;97889.31;4965991;28;113871;-72
2023/01/08 09:57:19;;;;;;;1.83;1.47;;;11.20;92.90;;;11.58;59.37;97891.41;4966905;28;123937;-73
2023/01/08 09:59:47;;;;;;;1.77;1.30;;;11.10;92.80;;;11.59;59.32;97883.94;4967110;28;123995;-72
2023/01/08 10:02:23;;;;;;;1.70;1.60;;;11.10;92.80;;;11.61;59.81;97889.94;4967840;28;113701;-71
2023/01/08 10:04:58;;;;;;;3.17;1.70;;;11.10;92.90;;;11.65;60.03;97896.38;4966545;28;114302;-70
2023/01/08 10:07:27;;;;;;;2.27;1.80;;;11.20;93.10;;;11.72;60.51;97897.44;4984844;28;123049;-71
2023/01/08 10:09:54;;;;;;;3.20;1.87;;;11.20;93.50;;;11.81;59.69;97902.06;4967422;28;123893;-71
2023/01/08 10:12:32;;;;;;;1.80;1.43;;;11.30;93.20;;;11.86;59.77;97894.38;4966156;28;114137;-71
2023/01/08 10:15:07;;;;;;;1.70;1.40;;;11.30;93.10;;;11.97;60.78;97891.19;4966407;28;113751;-71
2023/01/08 10:17:39;;;;;;;1.93;1.40;;;12.50;94.10;;;12.11;59.82;97888.88;4984405;28;123904;-71
2023/01/08 10:20:19;;;;;;;1.53;1.10;;;11.50;93.40;;;12.15;59.06;97889.81;4980547;28;123661;-71